Time;durP1;ratioP1;P1;durP2;ratioP2;P2;SDS_P1;SDS_P2;PMS_P1;PMS_P2;Temp;Humidity;BMP_temperature;BMP_pressure;BME280_temperature;BME280_humidity;BME280_pressure;Samples;Min_cycle;Max_cycle;Signal;HPM_P1;HPM_P2
2023/12/15 00:00:31;;;;;;;20.90;10.63;;;7.80;99.90;;;;;;4844354;29;20471;-84
2023/12/15 00:02:57;;;;;;;17.92;10.50;;;7.80;99.90;;;;;;4843393;29;20026;-83
2023/12/15 00:05:22;;;;;;;21.65;10.10;;;7.90;99.90;;;;;;4834167;29;20060;-82
2023/12/15 00:07:48;;;;;;;18.83;10.32;;;7.90;99.90;;;;;;4837533;29;20038;-83
2023/12/15 00:10:14;;;;;;;21.63;10.35;;;7.80;99.90;;;;;;4834762;29;20041;-83
2023/12/15 00:12:40;;;;;;;18.35;10.00;;;7.80;99.90;;;;;;4837390;29;20623;-83
2023/12/15 00:15:06;;;;;;;21.08;10.48;;;7.80;99.90;;;;;;4839618;29;20026;-83
2023/12/15 00:17:32;;;;;;;23.15;11.30;;;7.80;99.90;;;;;;4843878;29;20041;-83
2023/12/15 00:19:58;;;;;;;20.98;11.18;;;7.80;99.90;;;;;;4837463;29;20368;-83
2023/12/15 00:22:23;;;;;;;20.08;10.85;;;7.80;99.90;;;;;;4840118;29;20308;-83
2023/12/15 00:24:49;;;;;;;25.83;11.85;;;7.70;99.90;;;;;;4837939;29;20505;-83
2023/12/15 00:27:14;;;;;;;22.25;11.73;;;7.70;99.90;;;;;;4841845;29;20516;-83
2023/12/15 00:29:40;;;;;;;18.92;9.82;;;7.60;99.90;;;;;;4838579;29;20042;-83
2023/12/15 00:32:06;;;;;;;19.65;10.90;;;7.60;99.90;;;;;;4840403;29;20121;-83
2023/12/15 00:34:32;;;;;;;20.60;10.40;;;7.60;99.90;;;;;;4840583;29;20067;-83
2023/12/15 00:36:57;;;;;;;20.40;10.57;;;7.50;99.90;;;;;;4841576;29;20137;-83
2023/12/15 00:39:23;;;;;;;21.00;10.48;;;7.50;99.90;;;;;;4842669;29;20041;-83
2023/12/15 00:41:49;;;;;;;19.92;10.35;;;7.50;99.90;;;;;;4848801;29;20066;-83
2023/12/15 00:44:14;;;;;;;20.40;10.70;;;7.50;99.90;;;;;;4842416;29;20094;-82
2023/12/15 00:46:40;;;;;;;18.65;9.98;;;7.40;99.90;;;;;;4847678;29;20469;-83
2023/12/15 00:49:06;;;;;;;21.27;10.77;;;7.50;99.90;;;;;;4844835;29;20046;-83
2023/12/15 00:51:32;;;;;;;21.73;10.07;;;7.40;99.90;;;;;;4852682;29;20490;-84
2023/12/15 00:53:57;;;;;;;17.42;10.05;;;7.40;99.90;;;;;;4849193;29;20478;-83
2023/12/15 00:56:23;;;;;;;22.48;11.18;;;7.40;99.90;;;;;;4844838;29;20502;-83
2023/12/15 00:58:49;;;;;;;19.80;10.80;;;7.30;99.90;;;;;;4841931;29;20030;-84
2023/12/15 01:01:14;;;;;;;20.30;11.13;;;7.30;99.90;;;;;;4845340;29;20033;-83
2023/12/15 01:03:40;;;;;;;24.73;11.52;;;7.30;99.90;;;;;;4840463;29;20110;-83
2023/12/15 01:06:07;;;;;;;20.98;10.25;;;7.40;99.90;;;;;;4845628;29;20046;-83
2023/12/15 01:08:32;;;;;;;20.23;9.93;;;7.30;99.90;;;;;;4844975;29;20025;-84
2023/12/15 01:10:58;;;;;;;17.58;9.05;;;7.30;99.90;;;;;;4843192;29;20567;-83
2023/12/15 01:13:23;;;;;;;20.13;9.35;;;7.40;99.90;;;;;;4844578;29;20030;-83
2023/12/15 01:15:49;;;;;;;18.48;8.98;;;7.40;99.90;;;;;;4847960;29;20036;-84
2023/12/15 01:18:15;;;;;;;18.92;9.70;;;7.40;99.90;;;;;;4841188;29;21126;-81
2023/12/15 01:20:41;;;;;;;21.58;9.45;;;7.40;99.90;;;;;;4836958;29;20128;-83
2023/12/15 01:23:06;;;;;;;19.30;8.40;;;7.50;99.90;;;;;;4841560;29;20332;-84
2023/12/15 01:25:32;;;;;;;16.38;9.18;;;7.50;99.90;;;;;;4839315;29;20108;-83
2023/12/15 01:27:57;;;;;;;17.70;8.90;;;7.50;99.90;;;;;;4842514;29;20140;-83
2023/12/15 01:30:23;;;;;;;19.65;9.15;;;7.40;99.90;;;;;;4841353;29;20626;-83
2023/12/15 01:32:49;;;;;;;18.85;9.13;;;7.40;99.90;;;;;;4831617;29;20310;-84
2023/12/15 01:35:14;;;;;;;16.33;8.88;;;7.50;99.90;;;;;;4844830;29;20044;-81
2023/12/15 01:37:41;;;;;;;21.40;8.90;;;7.50;99.90;;;;;;4849018;29;20072;-82
2023/12/15 01:40:08;;;;;;;18.27;8.13;;;7.40;99.90;;;;;;4841142;29;20093;-82
2023/12/15 01:42:33;;;;;;;17.70;6.80;;;7.50;99.90;;;;;;4841410;29;20413;-82
2023/12/15 01:44:59;;;;;;;17.00;6.93;;;7.50;99.90;;;;;;4841827;29;20611;-82
2023/12/15 01:47:25;;;;;;;20.77;7.65;;;7.50;99.90;;;;;;4846611;29;20091;-82
2023/12/15 01:49:52;;;;;;;18.20;7.50;;;7.50;99.90;;;;;;4840926;29;20033;-82
2023/12/15 01:52:17;;;;;;;17.55;7.07;;;7.50;99.90;;;;;;4842367;29;20120;-82
2023/12/15 01:54:43;;;;;;;18.40;7.38;;;7.40;99.90;;;;;;4848184;29;20405;-83
2023/12/15 01:57:09;;;;;;;15.05;6.28;;;7.50;99.90;;;;;;4839808;29;20290;-82
2023/12/15 01:59:50;;;;;;;18.23;5.95;;;7.30;99.90;;;;;;4840525;29;20554;-83
2023/12/15 02:02:16;;;;;;;17.75;5.68;;;7.30;99.90;;;;;;4842362;29;20399;-82
2023/12/15 02:04:42;;;;;;;14.63;6.57;;;7.20;99.90;;;;;;4842013;29;20422;-82
2023/12/15 02:07:08;;;;;;;18.85;6.13;;;7.30;99.90;;;;;;4841584;29;20041;-82
2023/12/15 02:09:34;;;;;;;20.42;7.50;;;7.40;99.90;;;;;;4841077;29;20177;-82
2023/12/15 02:12:00;;;;;;;17.15;6.43;;;7.30;99.90;;;;;;4845487;29;20049;-83
2023/12/15 02:14:26;;;;;;;18.50;5.82;;;7.40;99.90;;;;;;4850806;29;20060;-84
2023/12/15 02:16:52;;;;;;;21.55;6.50;;;7.40;99.90;;;;;;4845136;29;20041;-83
2023/12/15 02:19:17;;;;;;;15.82;6.00;;;7.40;99.90;;;;;;4844503;29;20034;-83
2023/12/15 02:21:43;;;;;;;20.65;5.72;;;7.50;99.90;;;;;;4850473;29;20038;-83
2023/12/15 02:24:08;;;;;;;18.30;6.30;;;7.50;99.90;;;;;;4848884;29;20175;-83
2023/12/15 02:26:34;;;;;;;19.27;6.47;;;7.50;99.90;;;;;;4846321;29;20203;-83
2023/12/15 02:29:00;;;;;;;20.92;6.53;;;7.50;99.90;;;;;;4839488;29;20026;-83
2023/12/15 02:31:25;;;;;;;24.65;9.35;;;7.50;99.90;;;;;;4839365;29;20116;-84
2023/12/15 02:33:53;;;;;;;21.85;8.93;;;7.50;99.90;;;;;;4843759;29;20570;-82
2023/12/15 02:36:20;;;;;;;19.85;6.63;;;7.50;99.90;;;;;;4843731;29;20033;-84
2023/12/15 02:38:46;;;;;;;22.70;8.32;;;7.40;99.90;;;;;;4840410;29;20045;-83
2023/12/15 02:41:12;;;;;;;30.63;9.25;;;7.40;99.90;;;;;;4848908;29;20121;-83
2023/12/15 02:43:38;;;;;;;24.33;7.93;;;7.40;99.90;;;;;;4840512;29;20049;-83
2023/12/15 02:46:05;;;;;;;22.98;8.68;;;7.40;99.90;;;;;;4841015;29;20041;-84
2023/12/15 02:48:31;;;;;;;24.77;7.95;;;7.40;99.90;;;;;;4842565;29;20026;-83
2023/12/15 02:50:58;;;;;;;16.55;7.05;;;7.30;99.90;;;;;;4846925;29;20045;-83
2023/12/15 02:53:24;;;;;;;18.85;6.22;;;7.30;99.90;;;;;;4846608;29;20048;-83
2023/12/15 02:55:50;;;;;;;19.27;5.75;;;7.30;99.90;;;;;;4843598;29;20030;-83
2023/12/15 02:58:17;;;;;;;15.93;6.82;;;7.40;99.90;;;;;;4845466;29;20549;-82
2023/12/15 03:00:43;;;;;;;12.10;5.15;;;7.40;99.90;;;;;;4843256;29;20442;-83
2023/12/15 03:03:09;;;;;;;15.43;5.05;;;7.40;99.90;;;;;;4841753;29;20617;-83
2023/12/15 03:05:35;;;;;;;19.83;5.43;;;7.40;99.90;;;;;;4835566;29;20735;-83
2023/12/15 03:08:02;;;;;;;16.23;5.78;;;7.40;99.90;;;;;;4835705;29;20394;-83
2023/12/15 03:10:27;;;;;;;15.10;5.60;;;7.40;99.90;;;;;;4840315;29;20061;-83
2023/12/15 03:12:53;;;;;;;16.35;5.25;;;7.40;99.90;;;;;;4842168;29;20129;-81
2023/12/15 03:15:19;;;;;;;17.00;5.13;;;7.40;99.90;;;;;;4840649;29;20258;-83
2023/12/15 03:17:44;;;;;;;21.25;4.55;;;7.40;99.90;;;;;;4844803;29;20398;-81
2023/12/15 03:20:10;;;;;;;15.60;4.97;;;7.40;99.90;;;;;;4836672;29;20085;-81
2023/12/15 03:22:37;;;;;;;12.15;4.95;;;7.40;99.90;;;;;;4840877;29;20137;-82
2023/12/15 03:25:05;;;;;;;15.38;4.82;;;7.40;99.90;;;;;;4836470;29;20057;-82
2023/12/15 03:27:30;;;;;;;16.63;5.05;;;7.40;99.90;;;;;;4842858;29;20042;-82
2023/12/15 03:29:56;;;;;;;15.75;5.65;;;7.40;99.90;;;;;;4838947;29;20094;-82
2023/12/15 03:32:22;;;;;;;13.68;5.30;;;7.40;99.90;;;;;;4846896;29;20501;-82
2023/12/15 03:34:47;;;;;;;14.25;4.80;;;7.40;99.90;;;;;;4843546;29;20036;-82
2023/12/15 03:37:13;;;;;;;14.48;5.50;;;7.40;99.90;;;;;;4842032;29;20325;-82
2023/12/15 03:39:39;;;;;;;20.40;5.35;;;7.30;99.90;;;;;;4838728;29;20388;-81
2023/12/15 03:42:07;;;;;;;18.98;5.82;;;7.30;99.90;;;;;;4848468;29;20053;-82
2023/12/15 03:44:33;;;;;;;17.98;4.60;;;7.20;99.90;;;;;;4847152;29;20615;-82
2023/12/15 03:46:59;;;;;;;11.82;4.20;;;7.20;99.90;;;;;;4844541;29;20120;-82
2023/12/15 03:49:25;;;;;;;13.43;4.53;;;7.20;99.90;;;;;;4841934;29;20069;-82
2023/12/15 03:51:50;;;;;;;16.35;5.03;;;7.20;99.90;;;;;;4845408;29;20676;-83
2023/12/15 03:54:16;;;;;;;17.77;6.97;;;7.20;99.90;;;;;;4845100;29;20056;-83
2023/12/15 03:56:42;;;;;;;13.23;5.03;;;7.20;99.90;;;;;;4846411;29;20026;-83
2023/12/15 03:59:08;;;;;;;18.33;5.50;;;7.10;99.90;;;;;;4842474;29;20037;-83
2023/12/15 04:01:33;;;;;;;20.33;5.72;;;7.10;99.90;;;;;;4841800;29;20037;-83
2023/12/15 04:03:59;;;;;;;17.88;5.68;;;7.10;99.90;;;;;;4842352;29;20072;-83
2023/12/15 04:06:25;;;;;;;18.60;5.60;;;7.10;99.90;;;;;;4844334;29;20145;-84
2023/12/15 04:08:51;;;;;;;13.27;5.43;;;7.10;99.90;;;;;;4844414;29;20125;-83
2023/12/15 04:11:17;;;;;;;14.32;4.68;;;7.10;99.90;;;;;;4844810;29;20049;-84
2023/12/15 04:13:42;;;;;;;13.98;4.57;;;7.00;99.90;;;;;;4842934;29;20391;-83
2023/12/15 04:16:08;;;;;;;10.65;4.32;;;7.00;99.90;;;;;;4836009;29;20045;-82
2023/12/15 04:18:34;;;;;;;12.73;4.65;;;6.90;99.90;;;;;;4836606;29;20475;-82
2023/12/15 04:21:02;;;;;;;15.85;4.60;;;6.80;99.90;;;;;;4839762;29;20038;-82
2023/12/15 04:23:28;;;;;;;14.45;3.95;;;6.80;99.90;;;;;;4840271;29;20486;-83
2023/12/15 04:25:53;;;;;;;14.85;4.40;;;6.70;99.90;;;;;;4839570;29;20044;-82
2023/12/15 04:28:19;;;;;;;11.90;3.70;;;6.60;99.90;;;;;;4842511;29;20033;-82
2023/12/15 04:30:44;;;;;;;15.88;4.53;;;6.50;99.90;;;;;;4844439;29;20033;-82
2023/12/15 04:33:10;;;;;;;11.77;3.65;;;6.40;99.90;;;;;;4852612;29;20747;-83
2023/12/15 04:35:36;;;;;;;10.65;3.90;;;6.30;99.90;;;;;;4849645;29;20589;-83
2023/12/15 04:38:01;;;;;;;6.53;2.72;;;6.20;99.90;;;;;;4841405;29;20042;-83
2023/12/15 04:40:27;;;;;;;11.50;3.97;;;6.30;99.90;;;;;;4845413;29;20376;-83
2023/12/15 04:42:53;;;;;;;9.70;3.85;;;6.30;99.90;;;;;;4842362;29;20043;-82
2023/12/15 04:45:18;;;;;;;17.40;5.38;;;6.30;99.90;;;;;;4847280;29;20446;-82
2023/12/15 04:47:44;;;;;;;11.68;4.53;;;6.20;99.90;;;;;;4850120;29;20036;-83
2023/12/15 04:50:10;;;;;;;15.15;4.88;;;6.30;99.90;;;;;;4847918;29;20499;-83
2023/12/15 04:52:35;;;;;;;15.88;4.82;;;6.30;99.90;;;;;;4842260;29;20394;-82
2023/12/15 04:55:01;;;;;;;12.85;4.32;;;6.50;99.90;;;;;;4840516;29;20704;-82
2023/12/15 04:57:27;;;;;;;14.45;4.47;;;6.50;99.90;;;;;;4846307;29;20062;-83
2023/12/15 04:59:52;;;;;;;16.17;5.05;;;6.50;99.90;;;;;;4845373;29;20124;-82
2023/12/15 05:02:18;;;;;;;16.63;4.82;;;6.60;99.90;;;;;;4851595;29;20056;-82
2023/12/15 05:04:44;;;;;;;14.30;4.55;;;6.60;99.90;;;;;;4849577;29;20053;-82
2023/12/15 05:07:10;;;;;;;14.18;5.07;;;6.50;99.90;;;;;;4849558;29;20045;-81
2023/12/15 05:09:35;;;;;;;18.27;4.80;;;6.30;99.90;;;;;;4855173;29;20026;-82
2023/12/15 05:12:01;;;;;;;15.52;4.80;;;6.40;99.90;;;;;;4850954;29;20045;-82
2023/12/15 05:14:27;;;;;;;13.90;4.05;;;6.30;99.90;;;;;;4852869;29;20498;-81
2023/12/15 05:16:53;;;;;;;14.52;4.50;;;6.40;99.90;;;;;;4854273;29;20062;-83
2023/12/15 05:19:18;;;;;;;13.57;4.10;;;6.40;99.90;;;;;;4842969;29;20089;-83
2023/12/15 05:21:44;;;;;;;21.23;4.63;;;6.30;99.90;;;;;;4845295;29;20050;-82
2023/12/15 05:24:09;;;;;;;12.23;4.50;;;6.40;99.90;;;;;;4843240;29;20041;-82
2023/12/15 05:26:35;;;;;;;19.33;5.00;;;6.50;99.90;;;;;;4839766;29;20060;-82
2023/12/15 05:29:01;;;;;;;9.95;3.97;;;6.60;99.90;;;;;;4842971;29;20121;-83
2023/12/15 05:31:26;;;;;;;15.88;4.50;;;6.60;99.90;;;;;;4843360;29;20048;-82
2023/12/15 05:33:52;;;;;;;9.35;3.88;;;6.50;99.90;;;;;;4842581;29;20042;-83
2023/12/15 05:36:19;;;;;;;11.60;4.20;;;6.50;99.90;;;;;;4853415;29;20155;-82
2023/12/15 05:38:46;;;;;;;13.93;4.03;;;6.50;99.90;;;;;;4851013;29;20051;-82
2023/12/15 05:41:11;;;;;;;18.25;4.90;;;6.50;99.90;;;;;;4848336;29;20411;-82
2023/12/15 05:43:37;;;;;;;14.98;4.22;;;6.60;99.90;;;;;;4844755;29;20581;-83
2023/12/15 05:46:03;;;;;;;15.20;3.75;;;6.70;99.90;;;;;;4842935;29;20101;-82
2023/12/15 05:48:28;;;;;;;16.52;3.97;;;6.80;99.90;;;;;;4851337;29;20041;-82
2023/12/15 05:50:54;;;;;;;13.05;4.05;;;6.80;99.90;;;;;;4847207;29;20407;-82
2023/12/15 05:53:20;;;;;;;12.30;3.60;;;6.90;99.90;;;;;;4839755;29;20036;-82
2023/12/15 05:55:45;;;;;;;14.95;3.75;;;6.80;99.90;;;;;;4841866;29;20382;-82
2023/12/15 05:58:11;;;;;;;15.68;4.28;;;6.70;99.90;;;;;;4841451;29;20061;-82
2023/12/15 06:00:37;;;;;;;12.02;3.90;;;6.70;99.90;;;;;;4841343;29;20257;-82
2023/12/15 06:03:03;;;;;;;15.57;4.15;;;6.70;99.90;;;;;;4843370;29;20044;-83
2023/12/15 06:05:28;;;;;;;14.48;3.90;;;6.80;99.90;;;;;;4840167;29;20049;-82
2023/12/15 06:07:54;;;;;;;11.13;3.28;;;6.80;99.90;;;;;;4843280;29;20517;-82
2023/12/15 06:10:20;;;;;;;9.43;3.72;;;6.90;99.90;;;;;;4841633;29;21063;-82
2023/12/15 06:12:45;;;;;;;12.13;3.63;;;6.90;99.90;;;;;;4840836;29;20572;-82
2023/12/15 06:15:11;;;;;;;21.02;4.78;;;6.90;99.90;;;;;;4839049;29;20660;-82
2023/12/15 06:17:37;;;;;;;20.08;3.97;;;6.70;99.90;;;;;;4842274;29;20391;-81
2023/12/15 06:20:03;;;;;;;11.00;3.63;;;6.70;99.90;;;;;;4839544;29;20102;-83
2023/12/15 06:22:28;;;;;;;10.45;3.50;;;6.70;99.90;;;;;;4839260;29;20121;-83
2023/12/15 06:24:54;;;;;;;13.45;3.47;;;6.80;99.90;;;;;;4845549;29;20033;-83
2023/12/15 06:27:19;;;;;;;10.40;2.97;;;6.90;99.90;;;;;;4846138;29;20033;-84
2023/12/15 06:29:45;;;;;;;12.38;4.20;;;6.80;99.90;;;;;;4852079;29;20037;-84
2023/12/15 06:32:12;;;;;;;14.02;3.85;;;6.80;99.90;;;;;;4837347;29;20064;-83
2023/12/15 06:34:42;;;;;;;12.57;3.72;;;6.80;99.90;;;;;;4839899;29;20132;-84
2023/12/15 06:37:08;;;;;;;21.55;5.65;;;6.70;99.90;;;;;;4839725;29;20451;-83
2023/12/15 06:39:34;;;;;;;17.88;6.22;;;6.70;99.90;;;;;;4844825;29;20036;-83
2023/12/15 06:42:02;;;;;;;13.45;5.10;;;6.60;99.90;;;;;;4849739;29;20491;-83
2023/12/15 06:44:28;;;;;;;11.90;4.85;;;6.50;99.90;;;;;;4845498;29;20041;-82
2023/12/15 06:46:54;;;;;;;15.23;4.97;;;6.50;99.90;;;;;;4832538;29;20384;-83
2023/12/15 06:49:20;;;;;;;19.13;5.93;;;6.40;99.90;;;;;;4848608;29;20162;-83
2023/12/15 06:51:46;;;;;;;22.95;5.75;;;6.30;99.90;;;;;;4846196;29;20494;-82
2023/12/15 06:54:12;;;;;;;18.75;5.03;;;6.10;99.90;;;;;;4847758;29;20048;-82
2023/12/15 06:56:38;;;;;;;15.60;5.10;;;6.10;99.90;;;;;;4840795;29;20486;-82
2023/12/15 06:59:04;;;;;;;14.73;5.00;;;6.20;99.90;;;;;;4847520;29;20029;-82
2023/12/15 07:01:30;;;;;;;17.30;4.63;;;6.20;99.90;;;;;;4840760;29;20030;-82
2023/12/15 07:03:55;;;;;;;15.75;4.63;;;6.20;99.90;;;;;;4843152;29;20068;-83
2023/12/15 07:06:21;;;;;;;13.93;4.38;;;6.30;99.90;;;;;;4855748;29;20043;-83
2023/12/15 07:08:50;;;;;;;15.45;4.03;;;6.30;99.90;;;;;;4837474;29;20086;-83
2023/12/15 07:11:16;;;;;;;12.55;4.30;;;6.20;99.90;;;;;;4848025;29;20117;-84
2023/12/15 07:13:41;;;;;;;12.65;3.90;;;6.00;99.90;;;;;;4840706;29;20041;-84
2023/12/15 07:16:08;;;;;;;11.32;3.45;;;5.90;99.90;;;;;;4845661;29;20041;-83
2023/12/15 07:18:34;;;;;;;11.32;4.13;;;5.70;99.90;;;;;;4848374;29;20022;-84
2023/12/15 07:21:00;;;;;;;17.45;3.70;;;5.60;99.90;;;;;;4846170;29;20041;-82
2023/12/15 07:23:25;;;;;;;15.40;4.43;;;5.50;99.90;;;;;;4844625;29;20033;-83
2023/12/15 07:25:51;;;;;;;16.30;3.95;;;5.30;99.90;;;;;;4844407;29;20503;-82
2023/12/15 07:28:17;;;;;;;16.65;4.75;;;5.30;99.90;;;;;;4843107;29;20050;-82
2023/12/15 07:30:42;;;;;;;14.05;4.20;;;5.20;99.90;;;;;;4836134;29;20045;-83
2023/12/15 07:33:08;;;;;;;17.67;4.30;;;5.10;99.90;;;;;;4834426;29;20123;-83
2023/12/15 07:35:35;;;;;;;14.18;4.43;;;5.10;99.90;;;;;;4836600;29;20048;-83
2023/12/15 07:38:01;;;;;;;15.23;4.35;;;5.10;99.90;;;;;;4843521;29;20117;-83
2023/12/15 07:40:27;;;;;;;13.50;4.18;;;5.10;99.90;;;;;;4834636;29;20044;-83
2023/12/15 07:42:53;;;;;;;13.55;4.68;;;5.00;99.90;;;;;;4830277;29;20232;-83
2023/12/15 07:45:19;;;;;;;14.00;3.90;;;5.00;99.90;;;;;;4835877;29;20030;-85
2023/12/15 07:47:44;;;;;;;16.45;3.83;;;5.00;99.90;;;;;;4844926;29;20108;-87
2023/12/15 07:50:10;;;;;;;14.20;4.50;;;4.90;99.90;;;;;;4840218;29;20859;-86
2023/12/15 07:52:35;;;;;;;16.38;4.28;;;4.80;99.90;;;;;;4843245;29;20497;-86
2023/12/15 07:55:01;;;;;;;12.70;3.83;;;4.70;99.90;;;;;;4839022;29;20382;-86
2023/12/15 07:57:27;;;;;;;10.77;3.45;;;4.70;99.90;;;;;;4839920;29;20069;-85
2023/12/15 07:59:52;;;;;;;12.07;3.97;;;4.70;99.90;;;;;;4845242;29;20225;-85
2023/12/15 08:02:20;;;;;;;10.48;3.88;;;4.70;99.90;;;;;;4850066;29;20037;-85
2023/12/15 08:04:47;;;;;;;18.52;4.50;;;4.60;99.90;;;;;;4844671;29;20539;-84
2023/12/15 08:07:12;;;;;;;19.25;5.95;;;4.70;99.90;;;;;;4841943;29;20623;-86
2023/12/15 08:09:38;;;;;;;21.13;5.82;;;4.80;99.90;;;;;;4843966;29;20121;-85
2023/12/15 08:12:04;;;;;;;13.00;3.95;;;4.90;99.90;;;;;;4836145;29;20639;-85
2023/12/15 08:14:30;;;;;;;18.88;5.55;;;5.00;99.90;;;;;;4841472;29;20409;-86
2023/12/15 08:16:55;;;;;;;11.73;4.07;;;5.10;99.90;;;;;;4834925;29;20046;-85
2023/12/15 08:19:21;;;;;;;12.88;4.35;;;5.10;99.90;;;;;;4840573;29;20035;-84
2023/12/15 08:21:48;;;;;;;12.95;3.63;;;5.30;99.90;;;;;;4838519;29;20037;-84
2023/12/15 08:24:14;;;;;;;11.02;3.40;;;5.40;99.90;;;;;;4842176;29;20291;-85
2023/12/15 08:26:40;;;;;;;13.38;3.92;;;5.50;99.90;;;;;;4835139;29;20821;-84
2023/12/15 08:29:05;;;;;;;12.18;3.75;;;5.60;99.90;;;;;;4837409;29;20117;-83
2023/12/15 08:31:31;;;;;;;9.02;3.63;;;5.70;99.90;;;;;;4836065;29;20208;-84
2023/12/15 08:33:57;;;;;;;10.10;3.65;;;5.80;99.90;;;;;;4838392;29;20340;-84
2023/12/15 08:36:23;;;;;;;12.77;3.63;;;5.90;99.90;;;;;;4838562;29;20086;-82
2023/12/15 08:38:48;;;;;;;13.27;4.18;;;6.10;99.90;;;;;;4841794;29;20159;-82
2023/12/15 08:41:14;;;;;;;9.38;3.35;;;6.20;99.90;;;;;;4839164;29;20048;-82
2023/12/15 08:43:40;;;;;;;10.43;3.40;;;6.30;99.90;;;;;;4839582;29;20414;-84
2023/12/15 08:46:06;;;;;;;13.02;3.75;;;6.40;99.90;;;;;;4836084;29;20048;-81
2023/12/15 08:48:31;;;;;;;7.63;3.08;;;6.50;99.90;;;;;;4837977;29;20041;-82
2023/12/15 08:50:57;;;;;;;11.45;3.78;;;6.60;99.90;;;;;;4836186;29;20080;-80
2023/12/15 08:53:23;;;;;;;10.05;3.80;;;6.70;99.90;;;;;;4832674;29;20648;-83
2023/12/15 08:55:49;;;;;;;11.10;2.85;;;6.80;99.90;;;;;;4830745;29;20041;-84
2023/12/15 08:58:14;;;;;;;10.93;3.15;;;6.80;99.90;;;;;;4822975;29;20876;-81
2023/12/15 09:00:40;;;;;;;8.13;3.45;;;6.90;99.90;;;;;;4817444;29;20033;-80
2023/12/15 09:03:07;;;;;;;10.73;3.45;;;6.90;99.90;;;;;;4829303;29;21165;-78
2023/12/15 09:05:34;;;;;;;12.02;2.83;;;7.00;99.90;;;;;;4824707;29;20064;-78
2023/12/15 09:08:00;;;;;;;11.68;2.95;;;7.00;99.90;;;;;;4831994;29;20427;-77
2023/12/15 09:10:33;;;;;;;13.50;3.45;;;7.00;99.90;;;;;;4827702;29;20049;-79
2023/12/15 09:13:02;;;;;;;12.70;3.50;;;7.00;99.90;;;;;;4829312;29;20045;-78
2023/12/15 09:15:28;;;;;;;8.68;2.85;;;7.10;99.90;;;;;;4829780;29;20614;-79
2023/12/15 09:17:54;;;;;;;12.35;3.33;;;7.20;99.90;;;;;;4833723;29;20049;-80
2023/12/15 09:20:20;;;;;;;9.98;3.28;;;7.30;99.90;;;;;;4832317;29;20356;-81
2023/12/15 09:22:46;;;;;;;16.52;4.47;;;7.40;99.90;;;;;;4834160;29;20030;-79
2023/12/15 09:25:12;;;;;;;14.70;5.70;;;7.50;99.90;;;;;;4831998;29;20171;-81
2023/12/15 09:27:38;;;;;;;24.15;7.00;;;7.70;99.90;;;;;;4836112;29;20237;-80
2023/12/15 09:30:04;;;;;;;14.55;4.88;;;7.80;99.90;;;;;;4831112;29;20634;-81
2023/12/15 09:32:29;;;;;;;9.52;2.88;;;7.90;99.90;;;;;;4834895;29;20041;-81
2023/12/15 09:34:55;;;;;;;12.75;3.47;;;7.90;99.90;;;;;;4827576;29;20063;-82
2023/12/15 09:37:20;;;;;;;14.43;3.47;;;7.90;99.90;;;;;;4830092;29;20025;-81
2023/12/15 09:39:46;;;;;;;9.98;2.95;;;8.00;99.90;;;;;;4835621;29;20498;-81
2023/12/15 09:42:12;;;;;;;11.60;3.25;;;8.10;99.90;;;;;;4837335;29;20098;-83
2023/12/15 09:44:37;;;;;;;8.00;3.00;;;8.20;99.90;;;;;;4835193;29;20323;-80
2023/12/15 09:47:04;;;;;;;13.80;3.60;;;8.30;99.90;;;;;;4835149;29;20133;-81
2023/12/15 09:49:32;;;;;;;10.27;3.42;;;8.30;99.90;;;;;;4833134;29;20568;-82
2023/12/15 09:52:02;;;;;;;9.38;3.08;;;8.20;99.90;;;;;;4833720;29;20059;-79
2023/12/15 09:54:29;;;;;;;14.27;3.42;;;8.10;99.90;;;;;;4834995;29;20060;-82
2023/12/15 09:56:55;;;;;;;11.35;3.10;;;8.00;99.90;;;;;;4835532;29;20045;-80
2023/12/15 09:59:21;;;;;;;12.88;3.30;;;8.00;99.90;;;;;;4834388;29;20032;-80
2023/12/15 10:01:47;;;;;;;9.80;3.45;;;7.90;99.90;;;;;;4834807;29;20394;-81
2023/12/15 10:04:13;;;;;;;11.98;3.33;;;8.00;99.90;;;;;;4835310;29;20228;-80
2023/12/15 10:06:39;;;;;;;15.55;2.83;;;8.10;99.90;;;;;;4832984;29;21722;-81
2023/12/15 10:09:13;;;;;;;9.13;2.28;;;8.20;99.90;;;;;;4833852;29;20172;-79
2023/12/15 10:11:44;;;;;;;12.53;2.27;;;8.40;99.90;;;;;;4832637;29;20402;-79
2023/12/15 10:14:11;;;;;;;16.13;3.08;;;8.60;99.90;;;;;;4835616;29;20277;-80
2023/12/15 10:16:37;;;;;;;11.68;3.85;;;8.80;99.90;;;;;;4832322;29;20037;-79
2023/12/15 10:19:04;;;;;;;10.88;2.55;;;9.00;99.90;;;;;;4834681;29;20037;-79
2023/12/15 10:21:31;;;;;;;8.88;2.72;;;9.20;97.20;;;;;;4836091;29;20118;-79
2023/12/15 10:23:59;;;;;;;7.03;2.60;;;9.30;96.80;;;;;;4827501;29;20029;-80
2023/12/15 10:26:27;;;;;;;13.93;3.45;;;9.50;96.20;;;;;;4830285;29;20053;-80
2023/12/15 10:28:56;;;;;;;13.88;3.78;;;9.70;95.90;;;;;;4833685;29;20034;-80
2023/12/15 10:31:26;;;;;;;15.52;4.00;;;9.80;94.90;;;;;;4834448;29;20050;-79
2023/12/15 10:33:51;;;;;;;8.77;3.33;;;9.90;93.40;;;;;;4835286;29;20025;-79
2023/12/15 10:36:17;;;;;;;14.07;2.97;;;9.90;93.90;;;;;;4838546;29;20056;-81
2023/12/15 10:38:43;;;;;;;10.90;2.80;;;9.80;94.30;;;;;;4837080;29;20117;-82
2023/12/15 10:41:09;;;;;;;14.00;3.20;;;9.90;92.20;;;;;;4835896;29;20025;-79
2023/12/15 10:43:37;;;;;;;11.93;3.78;;;10.40;91.90;;;;;;4836741;29;20045;-82
2023/12/15 10:46:07;;;;;;;20.70;4.35;;;10.90;90.60;;;;;;4835300;29;20167;-80
2023/12/15 10:48:33;;;;;;;14.82;3.05;;;11.30;90.40;;;;;;4835593;29;20037;-82
2023/12/15 10:51:00;;;;;;;9.07;2.72;;;11.60;87.60;;;;;;4837705;29;20106;-82
2023/12/15 10:53:25;;;;;;;12.93;2.53;;;11.40;87.20;;;;;;4834025;29;20036;-82
2023/12/15 10:55:52;;;;;;;8.43;2.45;;;11.60;86.90;;;;;;4832302;29;20025;-82
2023/12/15 10:58:18;;;;;;;11.95;2.78;;;11.90;81.70;;;;;;4830394;29;20032;-82
2023/12/15 11:00:46;;;;;;;11.98;3.33;;;12.20;77.40;;;;;;4830723;29;20274;-82
2023/12/15 11:03:13;;;;;;;10.65;2.67;;;12.60;75.60;;;;;;4831789;29;20029;-81
2023/12/15 11:05:41;;;;;;;10.70;2.85;;;13.10;75.10;;;;;;4831920;29;20064;-82
2023/12/15 11:08:07;;;;;;;9.18;2.55;;;13.60;71.20;;;;;;4832058;29;20106;-82
2023/12/15 11:10:35;;;;;;;12.00;3.03;;;14.00;69.40;;;;;;4830457;29;20802;-82
2023/12/15 11:13:00;;;;;;;10.75;2.80;;;14.60;64.60;;;;;;4832034;29;20134;-82
2023/12/15 11:15:27;;;;;;;13.45;3.13;;;14.50;65.10;;;;;;4832400;29;20033;-81
2023/12/15 11:17:56;;;;;;;10.70;3.20;;;13.80;68.90;;;;;;4834951;29;20036;-84
2023/12/15 11:20:23;;;;;;;13.20;3.65;;;13.70;70.80;;;;;;4831636;29;20036;-83
2023/12/15 11:22:59;;;;;;;7.65;3.35;;;13.50;68.50;;;;;;4827775;29;20041;-83
2023/12/15 11:25:29;;;;;;;11.25;3.58;;;13.30;71.50;;;;;;4824800;29;20494;-87
2023/12/15 11:28:13;;;;;;;11.48;3.45;;;13.10;69.90;;;;;;4828984;29;20510;-83
2023/12/15 11:30:40;;;;;;;10.63;3.67;;;12.80;70.90;;;;;;4824804;29;20037;-82
2023/12/15 11:33:27;;;;;;;17.10;4.07;;;12.70;75.30;;;;;;4828324;29;20109;-83
2023/12/15 11:35:55;;;;;;;11.05;3.05;;;12.50;72.40;;;;;;4829609;29;20097;-84
2023/12/15 11:38:21;;;;;;;11.70;3.33;;;12.30;73.80;;;;;;4836945;29;20142;-84
2023/12/15 11:40:48;;;;;;;13.43;3.72;;;11.90;75.20;;;;;;4834968;29;20045;-82
2023/12/15 11:43:14;;;;;;;15.82;3.28;;;11.40;79.60;;;;;;4840950;29;20134;-86
2023/12/15 11:45:41;;;;;;;14.40;3.42;;;11.40;78.80;;;;;;4839361;29;20033;-82
2023/12/15 11:48:09;;;;;;;8.70;2.85;;;11.20;79.90;;;;;;4842438;29;20196;-82
2023/12/15 11:50:36;;;;;;;8.68;3.30;;;11.10;78.90;;;;;;4828253;29;20129;-84
2023/12/15 11:53:10;;;;;;;11.80;3.33;;;11.10;82.40;;;;;;4823949;29;20359;-80
2023/12/15 11:55:36;;;;;;;10.65;3.55;;;11.10;81.20;;;;;;4830841;29;20034;-82
2023/12/15 11:58:03;;;;;;;14.55;4.40;;;11.20;81.30;;;;;;4831265;29;20724;-82
2023/12/15 12:00:31;;;;;;;14.52;4.97;;;11.40;82.70;;;;;;4829331;29;20069;-80
2023/12/15 12:02:57;;;;;;;12.73;3.28;;;11.40;80.80;;;;;;4831113;29;20034;-86
2023/12/15 12:05:22;;;;;;;14.15;3.58;;;11.40;77.60;;;;;;4828645;29;20061;-83
2023/12/15 12:07:48;;;;;;;9.60;3.25;;;11.30;76.90;;;;;;4833331;29;20036;-80
2023/12/15 12:10:15;;;;;;;12.98;3.53;;;11.50;84.60;;;;;;4833440;29;20030;-82
2023/12/15 12:12:40;;;;;;;10.02;3.72;;;11.60;77.10;;;;;;4827435;29;20082;-80
2023/12/15 12:15:09;;;;;;;15.45;4.00;;;11.60;79.40;;;;;;4831783;29;20186;-81
2023/12/15 12:17:37;;;;;;;11.27;4.05;;;11.60;80.80;;;;;;4832972;29;20109;-78
2023/12/15 12:20:10;;;;;;;12.68;3.90;;;11.50;76.20;;;;;;4831372;29;20136;-82
2023/12/15 12:22:40;;;;;;;14.88;4.25;;;11.40;79.80;;;;;;4830524;29;20506;-81
2023/12/15 12:25:06;;;;;;;10.80;3.80;;;11.30;82.10;;;;;;4835041;29;20088;-83
2023/12/15 12:27:34;;;;;;;13.48;4.03;;;11.20;81.10;;;;;;4836841;29;20097;-84
2023/12/15 12:30:00;;;;;;;13.75;4.07;;;11.10;83.80;;;;;;4830948;29;20062;-83
2023/12/15 12:32:26;;;;;;;11.93;3.30;;;11.10;85.10;;;;;;4828265;29;20120;-82
2023/12/15 12:34:52;;;;;;;12.15;3.10;;;11.10;83.90;;;;;;4827571;29;20076;-85
2023/12/15 12:37:18;;;;;;;13.23;3.47;;;11.00;83.60;;;;;;4834386;29;20038;-84
2023/12/15 12:39:44;;;;;;;14.10;3.33;;;10.90;82.90;;;;;;4840536;29;20499;-85